sensor_id;sensor_type;location;lat;lon;timestamp;pressure;altitude;pressure_sealevel;temperature;humidity
23427;BME280;41148;45.420;10.952;2024-01-27T00:00:02;101815.81;;;4.36;100.00
23427;BME280;41148;45.420;10.952;2024-01-27T00:02:35;101827.16;;;4.30;100.00
23427;BME280;41148;45.420;10.952;2024-01-27T00:05:03;101832.22;;;4.16;100.00
23427;BME280;41148;45.420;10.952;2024-01-27T00:07:30;101819.59;;;3.97;100.00
23427;BME280;41148;45.420;10.952;2024-01-27T00:09:58;101825.66;;;3.93;100.00
23427;BME280;41148;45.420;10.952;2024-01-27T00:12:26;101822.81;;;3.82;100.00
23427;BME280;41148;45.420;10.952;2024-01-27T00:14:54;101832.34;;;3.74;100.00
23427;BME280;41148;45.420;10.952;2024-01-27T00:17:21;101835.06;;;3.79;100.00
23427;BME280;41148;45.420;10.952;2024-01-27T00:19:51;101846.22;;;3.65;100.00
23427;BME280;41148;45.420;10.952;2024-01-27T00:22:19;101837.09;;;3.47;100.00
23427;BME280;41148;45.420;10.952;2024-01-27T00:24:48;101832.47;;;3.35;100.00
23427;BME280;41148;45.420;10.952;2024-01-27T00:27:15;101839.47;;;3.33;100.00
23427;BME280;41148;45.420;10.952;2024-01-27T00:29:43;101834.06;;;3.27;100.00
23427;BME280;41148;45.420;10.952;2024-01-27T00:32:11;101834.88;;;3.23;100.00
23427;BME280;41148;45.420;10.952;2024-01-27T00:34:38;101834.94;;;3.27;100.00
23427;BME280;41148;45.420;10.952;2024-01-27T00:37:06;101838.31;;;3.19;100.00
23427;BME280;41148;45.420;10.952;2024-01-27T00:39:33;101837.06;;;3.01;100.00
23427;BME280;41148;45.420;10.952;2024-01-27T00:42:01;101844.81;;;2.95;100.00
23427;BME280;41148;45.420;10.952;2024-01-27T00:44:28;101839.00;;;3.10;100.00
23427;BME280;41148;45.420;10.952;2024-01-27T00:46:55;101827.69;;;3.15;100.00
23427;BME280;41148;45.420;10.952;2024-01-27T00:49:23;101839.19;;;3.19;100.00
23427;BME280;41148;45.420;10.952;2024-01-27T00:51:51;101846.91;;;3.10;100.00
23427;BME280;41148;45.420;10.952;2024-01-27T00:54:18;101856.59;;;2.72;100.00
23427;BME280;41148;45.420;10.952;2024-01-27T00:56:45;101846.97;;;2.72;100.00
23427;BME280;41148;45.420;10.952;2024-01-27T00:59:13;101850.09;;;2.56;100.00
23427;BME280;41148;45.420;10.952;2024-01-27T01:01:40;101842.59;;;2.73;100.00
23427;BME280;41148;45.420;10.952;2024-01-27T01:04:08;101856.69;;;2.76;100.00
23427;BME280;41148;45.420;10.952;2024-01-27T01:06:39;101854.34;;;2.51;100.00
23427;BME280;41148;45.420;10.952;2024-01-27T01:09:06;101861.63;;;2.25;100.00
23427;BME280;41148;45.420;10.952;2024-01-27T01:11:34;101854.91;;;2.38;100.00
23427;BME280;41148;45.420;10.952;2024-01-27T01:14:06;101856.09;;;2.14;100.00
23427;BME280;41148;45.420;10.952;2024-01-27T01:16:33;101857.94;;;2.18;100.00
23427;BME280;41148;45.420;10.952;2024-01-27T01:19:01;101871.03;;;2.15;100.00
23427;BME280;41148;45.420;10.952;2024-01-27T01:21:28;101879.66;;;2.46;100.00
23427;BME280;41148;45.420;10.952;2024-01-27T01:23:57;101872.66;;;2.46;100.00
23427;BME280;41148;45.420;10.952;2024-01-27T01:26:24;101894.81;;;2.21;100.00
23427;BME280;41148;45.420;10.952;2024-01-27T01:28:52;101895.03;;;2.29;100.00
23427;BME280;41148;45.420;10.952;2024-01-27T01:31:19;101898.25;;;2.52;100.00
23427;BME280;41148;45.420;10.952;2024-01-27T01:33:47;101893.50;;;2.39;100.00
23427;BME280;41148;45.420;10.952;2024-01-27T01:36:14;101894.94;;;2.24;100.00
23427;BME280;41148;45.420;10.952;2024-01-27T01:38:42;101889.28;;;2.45;100.00
23427;BME280;41148;45.420;10.952;2024-01-27T01:41:10;101879.28;;;2.30;100.00
23427;BME280;41148;45.420;10.952;2024-01-27T01:43:37;101877.94;;;2.12;100.00
23427;BME280;41148;45.420;10.952;2024-01-27T01:46:05;101883.19;;;2.12;100.00
23427;BME280;41148;45.420;10.952;2024-01-27T01:48:32;101883.34;;;2.18;100.00
23427;BME280;41148;45.420;10.952;2024-01-27T01:51:00;101887.78;;;2.20;100.00
23427;BME280;41148;45.420;10.952;2024-01-27T01:53:27;101902.53;;;2.14;100.00
23427;BME280;41148;45.420;10.952;2024-01-27T01:55:55;101898.84;;;2.07;100.00
23427;BME280;41148;45.420;10.952;2024-01-27T01:58:23;101897.13;;;2.08;100.00
23427;BME280;41148;45.420;10.952;2024-01-27T02:00:50;101890.25;;;2.13;100.00
23427;BME280;41148;45.420;10.952;2024-01-27T02:03:17;101888.75;;;2.22;100.00
23427;BME280;41148;45.420;10.952;2024-01-27T02:05:45;101890.97;;;2.07;100.00
23427;BME280;41148;45.420;10.952;2024-01-27T02:08:13;101894.66;;;2.14;100.00
23427;BME280;41148;45.420;10.952;2024-01-27T02:10:40;101907.72;;;1.78;100.00
23427;BME280;41148;45.420;10.952;2024-01-27T02:13:18;101911.47;;;1.87;100.00
23427;BME280;41148;45.420;10.952;2024-01-27T02:15:48;101911.69;;;1.95;100.00
23427;BME280;41148;45.420;10.952;2024-01-27T02:18:16;101913.22;;;1.87;100.00
23427;BME280;41148;45.420;10.952;2024-01-27T02:20:44;101910.69;;;1.91;100.00
23427;BME280;41148;45.420;10.952;2024-01-27T02:23:12;101913.59;;;1.69;100.00
23427;BME280;41148;45.420;10.952;2024-01-27T02:25:39;101913.97;;;1.83;100.00
23427;BME280;41148;45.420;10.952;2024-01-27T02:28:06;101914.31;;;1.95;100.00
23427;BME280;41148;45.420;10.952;2024-01-27T02:30:35;101891.25;;;2.18;100.00
23427;BME280;41148;45.420;10.952;2024-01-27T02:33:02;101899.78;;;2.09;100.00
23427;BME280;41148;45.420;10.952;2024-01-27T02:35:30;101906.94;;;2.15;100.00
23427;BME280;41148;45.420;10.952;2024-01-27T02:37:58;101900.66;;;2.10;100.00
23427;BME280;41148;45.420;10.952;2024-01-27T02:40:25;101908.34;;;2.02;100.00
23427;BME280;41148;45.420;10.952;2024-01-27T02:42:53;101905.72;;;2.02;100.00
23427;BME280;41148;45.420;10.952;2024-01-27T02:45:21;101907.81;;;2.14;100.00
23427;BME280;41148;45.420;10.952;2024-01-27T02:47:48;101908.28;;;1.99;100.00
23427;BME280;41148;45.420;10.952;2024-01-27T02:50:16;101904.03;;;2.04;100.00
23427;BME280;41148;45.420;10.952;2024-01-27T02:52:43;101900.88;;;2.17;100.00
23427;BME280;41148;45.420;10.952;2024-01-27T02:55:11;101894.75;;;2.18;100.00
23427;BME280;41148;45.420;10.952;2024-01-27T02:57:40;101896.50;;;2.18;100.00
23427;BME280;41148;45.420;10.952;2024-01-27T03:00:08;101897.41;;;2.20;100.00
23427;BME280;41148;45.420;10.952;2024-01-27T03:02:36;101899.47;;;1.97;100.00
23427;BME280;41148;45.420;10.952;2024-01-27T03:05:03;101886.94;;;1.87;100.00
23427;BME280;41148;45.420;10.952;2024-01-27T03:07:31;101895.91;;;1.63;100.00
23427;BME280;41148;45.420;10.952;2024-01-27T03:10:00;101895.28;;;1.72;100.00
23427;BME280;41148;45.420;10.952;2024-01-27T03:12:27;101897.47;;;1.55;100.00
23427;BME280;41148;45.420;10.952;2024-01-27T03:14:55;101884.97;;;1.80;100.00
23427;BME280;41148;45.420;10.952;2024-01-27T03:17:22;101892.91;;;1.81;100.00
23427;BME280;41148;45.420;10.952;2024-01-27T03:19:50;101913.53;;;1.66;100.00
23427;BME280;41148;45.420;10.952;2024-01-27T03:22:17;101900.56;;;1.73;100.00
23427;BME280;41148;45.420;10.952;2024-01-27T03:24:45;101905.81;;;1.73;100.00
23427;BME280;41148;45.420;10.952;2024-01-27T03:27:12;101905.72;;;1.69;100.00
23427;BME280;41148;45.420;10.952;2024-01-27T03:29:40;101917.88;;;1.65;100.00
23427;BME280;41148;45.420;10.952;2024-01-27T03:32:07;101910.03;;;1.67;100.00
23427;BME280;41148;45.420;10.952;2024-01-27T03:34:35;101920.63;;;1.38;100.00
23427;BME280;41148;45.420;10.952;2024-01-27T03:37:02;101917.69;;;1.59;100.00
23427;BME280;41148;45.420;10.952;2024-01-27T03:39:29;101924.78;;;1.62;100.00
23427;BME280;41148;45.420;10.952;2024-01-27T03:41:57;101939.16;;;1.44;100.00
23427;BME280;41148;45.420;10.952;2024-01-27T03:44:24;101907.56;;;1.41;100.00
23427;BME280;41148;45.420;10.952;2024-01-27T03:46:52;101917.50;;;1.53;100.00
23427;BME280;41148;45.420;10.952;2024-01-27T03:49:20;101919.81;;;1.41;100.00
23427;BME280;41148;45.420;10.952;2024-01-27T03:51:48;101908.75;;;1.23;100.00
23427;BME280;41148;45.420;10.952;2024-01-27T03:54:15;101915.97;;;1.30;100.00
23427;BME280;41148;45.420;10.952;2024-01-27T03:56:43;101910.97;;;1.37;100.00
23427;BME280;41148;45.420;10.952;2024-01-27T03:59:10;101917.22;;;1.42;100.00
23427;BME280;41148;45.420;10.952;2024-01-27T04:01:38;101912.53;;;1.62;100.00
23427;BME280;41148;45.420;10.952;2024-01-27T04:04:06;101917.75;;;1.61;100.00
23427;BME280;41148;45.420;10.952;2024-01-27T04:06:37;101918.78;;;1.66;100.00
23427;BME280;41148;45.420;10.952;2024-01-27T04:09:06;101917.41;;;1.49;100.00
23427;BME280;41148;45.420;10.952;2024-01-27T04:11:37;101917.91;;;1.67;100.00
23427;BME280;41148;45.420;10.952;2024-01-27T04:14:05;101911.94;;;1.72;100.00
23427;BME280;41148;45.420;10.952;2024-01-27T04:16:32;101899.91;;;1.81;100.00
23427;BME280;41148;45.420;10.952;2024-01-27T04:19:00;101905.16;;;1.81;100.00
23427;BME280;41148;45.420;10.952;2024-01-27T04:21:27;101915.34;;;1.68;100.00
23427;BME280;41148;45.420;10.952;2024-01-27T04:23:55;101920.69;;;1.73;100.00
23427;BME280;41148;45.420;10.952;2024-01-27T04:26:23;101918.66;;;1.63;100.00
23427;BME280;41148;45.420;10.952;2024-01-27T04:28:50;101915.13;;;1.61;100.00
23427;BME280;41148;45.420;10.952;2024-01-27T04:31:17;101923.03;;;1.62;100.00
23427;BME280;41148;45.420;10.952;2024-01-27T04:33:45;101922.09;;;1.60;100.00
23427;BME280;41148;45.420;10.952;2024-01-27T04:36:12;101927.31;;;1.59;100.00
23427;BME280;41148;45.420;10.952;2024-01-27T04:38:40;101924.72;;;1.60;100.00
23427;BME280;41148;45.420;10.952;2024-01-27T04:41:07;101907.63;;;1.44;100.00
23427;BME280;41148;45.420;10.952;2024-01-27T04:43:35;101915.94;;;1.58;100.00
23427;BME280;41148;45.420;10.952;2024-01-27T04:46:02;101913.56;;;1.67;100.00
23427;BME280;41148;45.420;10.952;2024-01-27T04:48:29;101914.81;;;1.50;100.00
23427;BME280;41148;45.420;10.952;2024-01-27T04:50:57;101920.81;;;1.76;100.00
23427;BME280;41148;45.420;10.952;2024-01-27T04:53:25;101916.56;;;1.81;100.00
23427;BME280;41148;45.420;10.952;2024-01-27T04:55:52;101922.88;;;1.56;100.00
23427;BME280;41148;45.420;10.952;2024-01-27T04:58:19;101916.00;;;1.61;100.00
23427;BME280;41148;45.420;10.952;2024-01-27T05:00:47;101912.25;;;1.53;100.00
23427;BME280;41148;45.420;10.952;2024-01-27T05:03:14;101919.53;;;1.32;100.00
23427;BME280;41148;45.420;10.952;2024-01-27T05:05:42;101931.81;;;1.63;100.00
23427;BME280;41148;45.420;10.952;2024-01-27T05:08:10;101928.97;;;1.55;100.00
23427;BME280;41148;45.420;10.952;2024-01-27T05:10:37;101934.34;;;1.60;100.00
23427;BME280;41148;45.420;10.952;2024-01-27T05:13:05;101942.78;;;1.48;100.00
23427;BME280;41148;45.420;10.952;2024-01-27T05:15:32;101948.38;;;1.30;100.00
23427;BME280;41148;45.420;10.952;2024-01-27T05:18:00;101937.75;;;1.26;100.00
23427;BME280;41148;45.420;10.952;2024-01-27T05:20:27;101938.72;;;1.29;100.00
23427;BME280;41148;45.420;10.952;2024-01-27T05:22:55;101938.09;;;1.38;100.00
23427;BME280;41148;45.420;10.952;2024-01-27T05:25:22;101937.94;;;1.33;100.00
23427;BME280;41148;45.420;10.952;2024-01-27T05:27:50;101945.25;;;1.43;100.00
23427;BME280;41148;45.420;10.952;2024-01-27T05:30:17;101952.28;;;1.44;100.00
23427;BME280;41148;45.420;10.952;2024-01-27T05:32:45;101955.59;;;1.67;100.00
23427;BME280;41148;45.420;10.952;2024-01-27T05:35:12;101939.59;;;1.60;100.00
23427;BME280;41148;45.420;10.952;2024-01-27T05:37:40;101950.78;;;1.53;100.00
23427;BME280;41148;45.420;10.952;2024-01-27T05:40:07;101961.78;;;1.39;100.00
23427;BME280;41148;45.420;10.952;2024-01-27T05:42:36;101953.00;;;1.39;100.00
23427;BME280;41148;45.420;10.952;2024-01-27T05:45:04;101952.19;;;1.41;100.00
23427;BME280;41148;45.420;10.952;2024-01-27T05:47:31;101955.31;;;1.28;100.00
23427;BME280;41148;45.420;10.952;2024-01-27T05:49:59;101966.56;;;1.24;100.00
23427;BME280;41148;45.420;10.952;2024-01-27T05:52:26;101964.69;;;1.20;100.00
23427;BME280;41148;45.420;10.952;2024-01-27T05:54:54;101963.19;;;1.28;100.00
23427;BME280;41148;45.420;10.952;2024-01-27T05:57:21;101973.59;;;1.25;100.00
23427;BME280;41148;45.420;10.952;2024-01-27T05:59:49;101962.25;;;1.26;100.00
23427;BME280;41148;45.420;10.952;2024-01-27T06:02:16;101957.75;;;1.22;100.00
23427;BME280;41148;45.420;10.952;2024-01-27T06:04:45;101953.31;;;1.20;100.00
23427;BME280;41148;45.420;10.952;2024-01-27T06:07:13;101955.94;;;1.20;100.00
23427;BME280;41148;45.420;10.952;2024-01-27T06:09:41;101942.19;;;1.00;100.00
23427;BME280;41148;45.420;10.952;2024-01-27T06:12:08;101953.69;;;0.76;100.00
23427;BME280;41148;45.420;10.952;2024-01-27T06:14:36;101949.31;;;0.48;100.00
23427;BME280;41148;45.420;10.952;2024-01-27T06:17:04;101960.66;;;0.76;100.00
23427;BME280;41148;45.420;10.952;2024-01-27T06:19:32;101958.28;;;0.83;100.00
23427;BME280;41148;45.420;10.952;2024-01-27T06:22:00;101963.50;;;0.82;100.00
23427;BME280;41148;45.420;10.952;2024-01-27T06:24:32;101966.22;;;0.85;100.00
23427;BME280;41148;45.420;10.952;2024-01-27T06:27:00;101975.81;;;0.84;100.00
23427;BME280;41148;45.420;10.952;2024-01-27T06:29:27;101975.97;;;0.89;100.00
23427;BME280;41148;45.420;10.952;2024-01-27T06:31:56;101977.72;;;0.89;100.00
23427;BME280;41148;45.420;10.952;2024-01-27T06:34:23;101989.41;;;0.98;100.00
23427;BME280;41148;45.420;10.952;2024-01-27T06:36:51;101975.47;;;1.01;100.00
23427;BME280;41148;45.420;10.952;2024-01-27T06:39:18;101991.25;;;1.02;100.00
23427;BME280;41148;45.420;10.952;2024-01-27T06:41:46;102004.53;;;1.07;100.00
23427;BME280;41148;45.420;10.952;2024-01-27T06:44:13;101997.16;;;0.95;100.00
23427;BME280;41148;45.420;10.952;2024-01-27T06:46:41;101997.59;;;1.09;100.00
23427;BME280;41148;45.420;10.952;2024-01-27T06:49:08;102007.66;;;1.24;100.00
23427;BME280;41148;45.420;10.952;2024-01-27T06:51:36;102011.72;;;1.41;100.00
23427;BME280;41148;45.420;10.952;2024-01-27T06:54:03;102012.56;;;1.40;100.00
23427;BME280;41148;45.420;10.952;2024-01-27T06:56:31;102020.97;;;1.28;100.00
23427;BME280;41148;45.420;10.952;2024-01-27T06:58:58;102017.97;;;1.16;100.00
23427;BME280;41148;45.420;10.952;2024-01-27T07:01:26;102007.09;;;1.34;100.00
23427;BME280;41148;45.420;10.952;2024-01-27T07:03:53;102011.28;;;1.56;100.00
23427;BME280;41148;45.420;10.952;2024-01-27T07:06:21;102012.78;;;1.48;100.00
23427;BME280;41148;45.420;10.952;2024-01-27T07:08:48;102018.59;;;1.66;100.00
23427;BME280;41148;45.420;10.952;2024-01-27T07:11:16;102030.03;;;1.68;100.00
23427;BME280;41148;45.420;10.952;2024-01-27T07:13:44;102018.63;;;1.67;100.00
23427;BME280;41148;45.420;10.952;2024-01-27T07:16:11;101999.63;;;1.76;100.00
23427;BME280;41148;45.420;10.952;2024-01-27T07:18:38;102015.41;;;1.76;100.00
23427;BME280;41148;45.420;10.952;2024-01-27T07:21:06;102008.19;;;2.00;100.00
23427;BME280;41148;45.420;10.952;2024-01-27T07:23:35;102010.38;;;1.84;100.00
23427;BME280;41148;45.420;10.952;2024-01-27T07:26:03;102017.53;;;1.89;100.00
23427;BME280;41148;45.420;10.952;2024-01-27T07:28:31;102011.16;;;1.81;100.00
23427;BME280;41148;45.420;10.952;2024-01-27T07:30:58;102012.31;;;1.91;100.00
23427;BME280;41148;45.420;10.952;2024-01-27T07:33:26;102030.03;;;1.98;100.00
23427;BME280;41148;45.420;10.952;2024-01-27T07:35:54;102025.56;;;1.94;100.00
23427;BME280;41148;45.420;10.952;2024-01-27T07:38:21;102024.84;;;2.01;100.00
23427;BME280;41148;45.420;10.952;2024-01-27T07:40:49;102042.78;;;1.84;100.00
23427;BME280;41148;45.420;10.952;2024-01-27T07:43:16;102034.25;;;1.93;100.00
23427;BME280;41148;45.420;10.952;2024-01-27T07:45:44;102044.75;;;1.93;100.00
23427;BME280;41148;45.420;10.952;2024-01-27T07:48:12;102047.59;;;1.99;100.00
23427;BME280;41148;45.420;10.952;2024-01-27T07:50:40;102033.63;;;2.01;100.00
23427;BME280;41148;45.420;10.952;2024-01-27T07:53:07;102043.22;;;1.99;100.00
23427;BME280;41148;45.420;10.952;2024-01-27T07:55:34;102041.81;;;2.12;100.00
23427;BME280;41148;45.420;10.952;2024-01-27T07:58:02;102035.19;;;2.25;100.00
23427;BME280;41148;45.420;10.952;2024-01-27T08:00:29;102033.53;;;2.30;100.00
23427;BME280;41148;45.420;10.952;2024-01-27T08:02:58;102041.31;;;2.25;100.00
23427;BME280;41148;45.420;10.952;2024-01-27T08:05:26;102045.41;;;2.47;100.00
23427;BME280;41148;45.420;10.952;2024-01-27T08:07:53;102034.38;;;2.61;100.00
23427;BME280;41148;45.420;10.952;2024-01-27T08:10:21;102040.22;;;2.50;100.00
23427;BME280;41148;45.420;10.952;2024-01-27T08:12:49;102039.19;;;2.78;100.00
23427;BME280;41148;45.420;10.952;2024-01-27T08:15:16;102041.28;;;2.90;100.00
23427;BME280;41148;45.420;10.952;2024-01-27T08:17:44;102039.34;;;2.83;100.00
23427;BME280;41148;45.420;10.952;2024-01-27T08:20:12;102044.19;;;2.68;100.00
23427;BME280;41148;45.420;10.952;2024-01-27T08:22:39;102050.38;;;2.70;100.00
23427;BME280;41148;45.420;10.952;2024-01-27T08:25:07;102041.50;;;2.65;100.00
23427;BME280;41148;45.420;10.952;2024-01-27T08:27:35;102043.53;;;2.76;100.00
23427;BME280;41148;45.420;10.952;2024-01-27T08:30:03;102040.50;;;2.94;100.00
23427;BME280;41148;45.420;10.952;2024-01-27T08:32:30;102045.84;;;2.99;100.00
23427;BME280;41148;45.420;10.952;2024-01-27T08:34:58;102034.41;;;2.97;100.00
23427;BME280;41148;45.420;10.952;2024-01-27T08:37:26;102042.91;;;2.86;100.00
23427;BME280;41148;45.420;10.952;2024-01-27T08:39:53;102049.28;;;2.95;100.00
23427;BME280;41148;45.420;10.952;2024-01-27T08:42:21;102038.16;;;3.06;100.00
23427;BME280;41148;45.420;10.952;2024-01-27T08:44:48;102058.28;;;3.04;100.00
23427;BME280;41148;45.420;10.952;2024-01-27T08:47:16;102047.97;;;3.13;100.00
23427;BME280;41148;45.420;10.952;2024-01-27T08:49:43;102042.72;;;3.13;100.00
23427;BME280;41148;45.420;10.952;2024-01-27T08:52:11;102047.28;;;3.21;100.00
23427;BME280;41148;45.420;10.952;2024-01-27T08:54:38;102046.69;;;3.34;100.00
23427;BME280;41148;45.420;10.952;2024-01-27T08:57:06;102042.06;;;3.24;100.00
23427;BME280;41148;45.420;10.952;2024-01-27T08:59:34;102048.56;;;3.38;100.00
23427;BME280;41148;45.420;10.952;2024-01-27T09:02:03;102052.09;;;3.38;100.00
23427;BME280;41148;45.420;10.952;2024-01-27T09:04:30;102053.69;;;3.32;100.00
23427;BME280;41148;45.420;10.952;2024-01-27T09:06:58;102054.09;;;3.12;100.00
23427;BME280;41148;45.420;10.952;2024-01-27T09:09:25;102079.66;;;3.16;100.00
23427;BME280;41148;45.420;10.952;2024-01-27T09:11:53;102086.75;;;3.19;100.00
23427;BME280;41148;45.420;10.952;2024-01-27T09:14:21;102086.91;;;3.27;100.00
23427;BME280;41148;45.420;10.952;2024-01-27T09:16:49;102086.41;;;3.41;100.00
23427;BME280;41148;45.420;10.952;2024-01-27T09:19:16;102094.47;;;3.48;100.00
23427;BME280;41148;45.420;10.952;2024-01-27T09:21:44;102102.88;;;3.33;100.00
23427;BME280;41148;45.420;10.952;2024-01-27T09:24:12;102097.69;;;3.37;100.00
23427;BME280;41148;45.420;10.952;2024-01-27T09:26:42;102093.41;;;3.41;100.00
23427;BME280;41148;45.420;10.952;2024-01-27T09:29:10;102096.00;;;3.38;100.00
23427;BME280;41148;45.420;10.952;2024-01-27T09:31:37;102123.28;;;3.41;100.00
23427;BME280;41148;45.420;10.952;2024-01-27T09:34:05;102117.00;;;3.36;100.00
23427;BME280;41148;45.420;10.952;2024-01-27T09:36:33;102111.81;;;3.38;100.00
23427;BME280;41148;45.420;10.952;2024-01-27T09:39:00;102121.00;;;3.57;100.00
23427;BME280;41148;45.420;10.952;2024-01-27T09:41:31;102121.81;;;3.54;100.00
23427;BME280;41148;45.420;10.952;2024-01-27T09:44:02;102106.59;;;3.41;100.00
23427;BME280;41148;45.420;10.952;2024-01-27T09:46:31;102105.06;;;3.51;100.00
23427;BME280;41148;45.420;10.952;2024-01-27T09:49:00;102116.84;;;3.66;100.00
23427;BME280;41148;45.420;10.952;2024-01-27T09:51:30;102128.63;;;3.44;100.00
23427;BME280;41148;45.420;10.952;2024-01-27T09:53:57;102121.91;;;3.57;100.00
23427;BME280;41148;45.420;10.952;2024-01-27T09:56:26;102116.16;;;3.75;100.00
23427;BME280;41148;45.420;10.952;2024-01-27T09:58:53;102122.66;;;3.89;100.00
23427;BME280;41148;45.420;10.952;2024-01-27T10:01:24;102135.38;;;3.69;100.00
23427;BME280;41148;45.420;10.952;2024-01-27T10:03:54;102140.69;;;3.71;100.00
23427;BME280;41148;45.420;10.952;2024-01-27T10:06:21;102132.31;;;3.51;100.00
23427;BME280;41148;45.420;10.952;2024-01-27T10:08:54;102133.59;;;3.68;100.00
23427;BME280;41148;45.420;10.952;2024-01-27T10:11:23;102140.69;;;3.71;100.00
23427;BME280;41148;45.420;10.952;2024-01-27T10:13:54;102147.59;;;3.30;100.00
23427;BME280;41148;45.420;10.952;2024-01-27T10:16:26;102151.25;;;3.02;100.00
23427;BME280;41148;45.420;10.952;2024-01-27T10:19:02;102156.78;;;2.79;100.00
23427;BME280;41148;45.420;10.952;2024-01-27T10:21:31;102155.34;;;2.59;100.00
23427;BME280;41148;45.420;10.952;2024-01-27T10:23:59;102149.97;;;2.54;100.00
23427;BME280;41148;45.420;10.952;2024-01-27T10:26:30;102146.03;;;2.70;100.00
23427;BME280;41148;45.420;10.952;2024-01-27T10:28:59;102148.06;;;2.80;100.00
23427;BME280;41148;45.420;10.952;2024-01-27T10:31:27;102151.53;;;3.12;100.00
23427;BME280;41148;45.420;10.952;2024-01-27T10:33:56;102141.47;;;3.31;100.00
23427;BME280;41148;45.420;10.952;2024-01-27T10:36:25;102140.56;;;3.29;100.00
23427;BME280;41148;45.420;10.952;2024-01-27T10:38:53;102147.00;;;3.41;100.00
23427;BME280;41148;45.420;10.952;2024-01-27T10:41:24;102140.66;;;3.69;100.00
23427;BME280;41148;45.420;10.952;2024-01-27T10:43:53;102148.56;;;3.69;100.00
23427;BME280;41148;45.420;10.952;2024-01-27T10:46:22;102148.56;;;3.69;100.00
23427;BME280;41148;45.420;10.952;2024-01-27T10:48:52;102140.28;;;3.54;100.00
23427;BME280;41148;45.420;10.952;2024-01-27T10:51:44;102145.53;;;3.54;100.00
23427;BME280;41148;45.420;10.952;2024-01-27T10:54:23;102145.13;;;3.73;100.00
23427;BME280;41148;45.420;10.952;2024-01-27T10:56:53;102140.06;;;3.83;100.00
23427;BME280;41148;45.420;10.952;2024-01-27T10:59:22;102140.47;;;4.01;100.00
23427;BME280;41148;45.420;10.952;2024-01-27T11:01:52;102157.72;;;4.26;100.00
23427;BME280;41148;45.420;10.952;2024-01-27T11:04:20;102166.66;;;4.32;100.00
23427;BME280;41148;45.420;10.952;2024-01-27T11:06:49;102156.94;;;3.91;100.00
23427;BME280;41148;45.420;10.952;2024-01-27T11:09:18;102153.94;;;3.76;100.00
23427;BME280;41148;45.420;10.952;2024-01-27T11:11:47;102168.50;;;3.58;100.00
23427;BME280;41148;45.420;10.952;2024-01-27T11:14:15;102181.13;;;3.73;100.00
23427;BME280;41148;45.420;10.952;2024-01-27T11:16:42;102158.03;;;3.61;100.00
23427;BME280;41148;45.420;10.952;2024-01-27T11:19:11;102161.91;;;3.77;100.00
23427;BME280;41148;45.420;10.952;2024-01-27T11:21:40;102171.84;;;3.89;100.00
23427;BME280;41148;45.420;10.952;2024-01-27T11:24:25;102178.84;;;3.87;100.00
23427;BME280;41148;45.420;10.952;2024-01-27T11:27:26;102162.59;;;4.06;100.00
23427;BME280;41148;45.420;10.952;2024-01-27T11:29:54;102151.06;;;4.02;100.00
23427;BME280;41148;45.420;10.952;2024-01-27T11:32:22;102157.31;;;4.06;100.00
23427;BME280;41148;45.420;10.952;2024-01-27T11:34:50;102174.69;;;3.98;100.00
23427;BME280;41148;45.420;10.952;2024-01-27T11:37:18;102170.34;;;4.00;100.00
23427;BME280;41148;45.420;10.952;2024-01-27T11:40:03;102167.09;;;4.13;100.00
23427;BME280;41148;45.420;10.952;2024-01-27T11:42:31;102162.31;;;4.35;100.00
23427;BME280;41148;45.420;10.952;2024-01-27T11:44:59;102166.81;;;4.40;100.00
23427;BME280;41148;45.420;10.952;2024-01-27T11:47:27;102173.38;;;4.59;100.00
23427;BME280;41148;45.420;10.952;2024-01-27T11:49:55;102163.94;;;4.28;100.00
23427;BME280;41148;45.420;10.952;2024-01-27T11:52:25;102179.31;;;4.49;100.00
23427;BME280;41148;45.420;10.952;2024-01-27T11:54:59;102207.53;;;4.12;100.00
23427;BME280;41148;45.420;10.952;2024-01-27T11:57:27;102193.84;;;4.28;100.00
23427;BME280;41148;45.420;10.952;2024-01-27T11:59:55;102181.22;;;4.56;100.00
23427;BME280;41148;45.420;10.952;2024-01-27T12:02:23;102187.25;;;4.50;100.00
23427;BME280;41148;45.420;10.952;2024-01-27T12:04:51;102187.38;;;4.55;100.00
23427;BME280;41148;45.420;10.952;2024-01-27T12:07:19;102178.69;;;4.62;100.00
23427;BME280;41148;45.420;10.952;2024-01-27T12:09:51;102177.19;;;4.73;100.00
23427;BME280;41148;45.420;10.952;2024-01-27T12:12:20;102192.28;;;4.82;100.00
23427;BME280;41148;45.420;10.952;2024-01-27T12:14:49;102175.72;;;4.91;100.00
23427;BME280;41148;45.420;10.952;2024-01-27T12:17:17;102177.63;;;4.98;100.00
23427;BME280;41148;45.420;10.952;2024-01-27T12:19:49;102179.94;;;4.81;100.00
23427;BME280;41148;45.420;10.952;2024-01-27T12:22:25;102183.41;;;4.77;100.00
23427;BME280;41148;45.420;10.952;2024-01-27T12:24:54;102182.66;;;4.40;100.00
23427;BME280;41148;45.420;10.952;2024-01-27T12:27:22;102173.97;;;4.46;100.00
23427;BME280;41148;45.420;10.952;2024-01-27T12:29:51;102167.34;;;4.66;100.00
23427;BME280;41148;45.420;10.952;2024-01-27T12:32:19;102176.16;;;4.67;100.00
23427;BME280;41148;45.420;10.952;2024-01-27T12:34:46;102179.31;;;4.93;100.00
23427;BME280;41148;45.420;10.952;2024-01-27T12:37:15;102175.66;;;4.86;100.00
23427;BME280;41148;45.420;10.952;2024-01-27T12:39:44;102177.38;;;4.84;100.00
23427;BME280;41148;45.420;10.952;2024-01-27T12:42:14;102179.53;;;4.59;100.00
23427;BME280;41148;45.420;10.952;2024-01-27T12:44:42;102186.59;;;4.62;100.00